Flagstaff, AZ (86001)

11:51 AM MST on October 24, 2014 (GMT -0700)
Bow and Arrow | Change Station
CLOSE
Current Station
Personal Weather Station
Location: Flagstaff, AZ
Elevation: 6900 ft
Nearby Weather Stations

Elev 6900 ft 35.16 °N, 111.66 °W | Updated 13 seconds ago

Clear
Clear
80.1 °F
Feels Like 79 °F
N
2.7
Wind Variable Wind from WNW
Gusts 6.3 mph

Today
High -- | Low -- °F
--% Chance of Precip.
Yesterday
High -- | Low -- °F
Precip. -- in
6:40 AM 5:40 PM
New Moon, 1% visible
Pressure 30.21 in
Visibility 10.0 miles
Clouds Clear
Heat Index 79 °F
Dew Point 46 °F
Humidity 30%
Rainfall 0.00 in
Snow Depth Not available.
UV 6 out of 12
Pollen 4.40 out of 12
Air Quality Not available.
Flu Activity No Activity
METAR KFLG 241757Z 21008KT 10SM CLR 19/M04 A3041 RMK AO2 SLP230 T01941039 10194 20006 50004

More Conditions Fewer Conditions

Pressure 30.21 in
Visibility 10.0 miles
Clouds Clear
Heat Index 79 °F
Dew Point 46 °F
Humidity 30%
Rainfall 0.00 in
Snow Depth Not available.
UV 6 out of 12
Pollen 4.40 out of 12
Air Quality Not available.
Flu Activity No Activity
METAR KFLG 241757Z 21008KT 10SM CLR 19/M04 A3041 RMK AO2 SLP230 T01941039 10194 20006 50004

More Conditions Fewer Conditions

10-Day Weather Forecast

Almanac

Astronomy

Oct. 24, 2014 Rise Set
Actual Time 6:40 AM MST 5:40 PM MST
Civil Twilight 6:14 AM MST 6:06 PM MST
Nautical Twilight 5:44 AM MST 6:35 PM MST
Astronomical Twilight 5:15 AM MST 7:05 PM MST
Moon 7:21 AM MST 6:24 PM MST
Length of Visible Light 11h 51m
Length of Day
10h 59m
Tomorrow will be 2m 2s shorter.
New Moon, 1% of the Moon is Illuminated
Today
New Moon
Oct 30
First Quarter
Nov 6
Full
Nov 14
Last Quarter
Nov 22
New

Today's Extremes

State Highs State Lows

Community

WunderPhotos

Upload Photos

1,764,634 photos uploaded!

Nearby

Snow Depth

Station Depth Elevation
White Horse Lake 0 in 7180 ft
Baker Butte 0 in 7300 ft
Baldy 0 in 9125 ft
Wildcat 0 in 7850 ft

Earthquake Activity

City Distance Mag. Time & Date
No recent earthquake activity has been reported nearby.
Minimum magnitude displayed is 2.5.

Coastal Water Temperatures

Place Temperature
No Stations Reporting

Nearby Weather Stations